Airfield :







YOU CAN JOIN US ON...

 
LOGIN :

Register | Disclaimer

   EN    FR    IT 

 









Legend :    VFR   Marginal VFR   IFR   Intensive IFR   Very Intensive IFR
Visi :
Ceiling :
>= 8 km
>= 3000ft
5 to 8 km
1000 to 3000 ft
1500m to 5 km
500 to 1000 ft
800 to 1500m
200 to 500 ft
< 800m
< 200 ft
Symbols :   Thunderstorms  Fog  Heavy snow  Heavy precipitations  Wind > 20 kt






- Airport Elevation : 285 ft
- IATA code : ALB


KALB - Albany International

CURRENT METAR :
  • 171951Z 00000KT 10SM BKN027 BKN050 BKN065 22/18 A3022 RMK AO2 SLP234 BKN027 V SCT T02220183

EXPIRED METARs :
  • 171851Z 22004KT 10SM BKN024 OVC030 22/18 A3024 RMK AO2 SLP239 T02220183
  • 171751Z 17004KT 10SM BKN026 22/18 A3026 RMK AO2 SLP245 T02170183 10222 20167 58012

TAF KALB
Valid from the 17 at 18:00 until the 18 at 18:00 UTC


171720Z 1718/1818 15006KT P6SM OVC035
TEMPO 1718/1722 BKN025
FM172300 VRB03KT P6SM BKN030
FM180500 00000KT P6SM BKN025
FM181500 VRB03KT P6SM SCT025
KZBW FIR / North America



MET'MAP, your aeronautical weather chart ! - Copyright ORBIFLY December 2007 - Disclaimer

ORBIFLY MET'MAP TEAM :

Programming & Development : Alexandra Zaïnal
Concept & original design : Baudouin d'Aumeries
Assistance for programming : Marc-Olivier Méhu
Technical & hardware support : Manuel Goepfert

Contact : metmap@orbifly.com




SOURCES & CREDITS :

   NOAA